Time;durP1;ratioP1;P1;durP2;ratioP2;P2;SDS_P1;SDS_P2;PMS_P1;PMS_P2;Temp;Humidity;BMP_temperature;BMP_pressure;BME280_temperature;BME280_humidity;BME280_pressure;Samples;Min_cycle;Max_cycle;Signal;HPM_P1;HPM_P2
2023/05/19 04:24:13;;;;;;;5.57;1.10;;;14.00;64.70;;;;;;5273213;24;20066;-64
2023/05/19 04:26:41;;;;;;;8.80;1.70;;;14.20;65.20;;;;;;4824219;29;20141;-64
2023/05/19 04:29:07;;;;;;;14.80;2.25;;;14.20;65.40;;;;;;4826421;29;20057;-64
2023/05/19 04:31:34;;;;;;;14.77;2.15;;;14.30;65.40;;;;;;4825055;29;20046;-65
2023/05/19 04:34:00;;;;;;;16.45;2.92;;;14.40;65.10;;;;;;4796246;29;20061;-64
2023/05/19 04:36:26;;;;;;;44.28;4.18;;;14.60;65.20;;;;;;4807896;29;20133;-65
2023/05/19 04:38:53;;;;;;;34.88;3.88;;;14.80;65.10;;;;;;4807835;29;20051;-65
2023/05/19 04:41:20;;;;;;;22.98;2.55;;;15.00;65.10;;;;;;4808363;29;20050;-65
2023/05/19 04:43:47;;;;;;;21.60;2.75;;;15.20;65.20;;;;;;4826819;29;20138;-64
2023/05/19 04:46:13;;;;;;;22.88;3.20;;;15.40;65.30;;;;;;4804756;29;20058;-65
2023/05/19 04:48:39;;;;;;;26.58;4.22;;;15.50;65.40;;;;;;4821479;29;20473;-65
2023/05/19 04:51:06;;;;;;;23.45;3.58;;;15.60;65.60;;;;;;4809991;29;20133;-65
2023/05/19 04:53:32;;;;;;;25.30;3.83;;;15.70;65.70;;;;;;4828234;29;20199;-66
2023/05/19 04:55:59;;;;;;;21.95;3.03;;;15.70;65.80;;;;;;4827814;29;20137;-65
2023/05/19 04:58:26;;;;;;;20.58;3.40;;;15.80;65.80;;;;;;4827065;29;20085;-65
2023/05/19 05:00:56;;;;;;;32.97;3.70;;;15.80;66.00;;;;;;4815426;29;20047;-67
2023/05/19 05:03:22;;;;;;;32.58;4.43;;;15.80;66.20;;;;;;4811189;29;20050;-67
2023/05/19 05:05:48;;;;;;;31.50;4.90;;;15.80;66.30;;;;;;4826467;29;20230;-65
2023/05/19 05:08:20;;;;;;;45.97;5.55;;;15.80;66.60;;;;;;4829359;29;20447;-66
2023/05/19 05:10:46;;;;;;;33.55;5.20;;;15.80;66.90;;;;;;4829369;29;20096;-65
2023/05/19 05:13:12;;;;;;;34.83;4.53;;;15.80;67.00;;;;;;4828645;29;20080;-65
2023/05/19 05:15:38;;;;;;;31.38;4.88;;;15.80;67.30;;;;;;4829233;29;20126;-66
2023/05/19 05:18:04;;;;;;;46.13;5.60;;;15.80;67.70;;;;;;4818177;29;20057;-66
2023/05/19 05:20:30;;;;;;;38.28;5.82;;;15.80;67.90;;;;;;4829043;29;20188;-65
2023/05/19 05:22:56;;;;;;;42.28;5.00;;;15.80;68.30;;;;;;4828529;29;20130;-66
2023/05/19 05:25:22;;;;;;;43.42;5.13;;;15.80;68.70;;;;;;4828323;29;20517;-66
2023/05/19 05:27:48;;;;;;;48.15;5.82;;;15.80;68.90;;;;;;4828213;29;20054;-66
2023/05/19 05:30:14;;;;;;;40.17;5.57;;;15.80;69.10;;;;;;4824554;29;20084;-66
2023/05/19 05:32:40;;;;;;;42.00;6.72;;;15.80;69.20;;;;;;4818275;29;20223;-66
2023/05/19 05:35:06;;;;;;;37.05;5.72;;;15.80;69.00;;;;;;4816184;29;20055;-67
2023/05/19 05:37:32;;;;;;;39.63;5.38;;;15.70;68.90;;;;;;4828199;29;20098;-64
2023/05/19 05:39:58;;;;;;;30.65;4.78;;;15.70;68.90;;;;;;4828003;29;20058;-64
2023/05/19 05:42:24;;;;;;;44.38;6.25;;;15.70;68.60;;;;;;4819810;29;20047;-65
2023/05/19 05:44:50;;;;;;;47.78;6.43;;;15.70;68.30;;;;;;4810729;29;20055;-65
2023/05/19 05:47:16;;;;;;;56.05;6.95;;;15.70;68.30;;;;;;4813235;29;20050;-65
2023/05/19 05:49:42;;;;;;;47.90;6.57;;;15.80;67.90;;;;;;4828435;29;20095;-65
2023/05/19 05:52:11;;;;;;;37.40;5.47;;;15.80;68.20;;;;;;4827913;29;20062;-67
2023/05/19 05:54:37;;;;;;;23.88;4.68;;;15.80;68.30;;;;;;4826526;29;20066;-64
2023/05/19 05:57:03;;;;;;;23.95;5.20;;;15.70;68.10;;;;;;4828362;29;20047;-67
2023/05/19 05:59:29;;;;;;;28.40;4.15;;;15.70;67.90;;;;;;4825827;29;20047;-64
2023/05/19 06:01:54;;;;;;;31.45;4.97;;;15.80;67.80;;;;;;4828467;29;20057;-64
2023/05/19 06:04:20;;;;;;;27.73;5.32;;;15.80;67.80;;;;;;4828714;29;20442;-64
2023/05/19 06:06:46;;;;;;;26.17;4.47;;;15.80;67.70;;;;;;4828208;29;20133;-64
2023/05/19 06:09:11;;;;;;;25.80;4.93;;;15.80;67.60;;;;;;4827968;29;20133;-64
2023/05/19 06:11:37;;;;;;;16.65;3.70;;;15.90;67.50;;;;;;4821094;29;20084;-64
2023/05/19 06:14:03;;;;;;;16.75;4.03;;;15.90;67.30;;;;;;4822862;29;20117;-65
2023/05/19 06:16:29;;;;;;;31.00;4.47;;;15.90;67.20;;;;;;4810400;29;20488;-65
2023/05/19 06:18:55;;;;;;;23.65;4.40;;;15.90;67.30;;;;;;4818133;29;20050;-65
2023/05/19 06:21:21;;;;;;;21.25;5.20;;;15.90;68.00;;;;;;4816955;29;20070;-65
2023/05/19 06:23:47;;;;;;;27.65;4.90;;;15.90;67.60;;;;;;4823527;29;20065;-65
2023/05/19 06:26:14;;;;;;;22.85;4.00;;;15.90;67.50;;;;;;4827907;29;20063;-66
2023/05/19 06:28:39;;;;;;;16.40;3.50;;;15.90;67.40;;;;;;4820233;29;20047;-66
2023/05/19 06:31:05;;;;;;;20.35;3.63;;;15.90;67.20;;;;;;4827524;29;20046;-66
2023/05/19 06:33:31;;;;;;;12.93;3.70;;;15.90;67.10;;;;;;4827820;29;20501;-66
2023/05/19 06:35:57;;;;;;;12.68;2.83;;;15.90;67.00;;;;;;4828186;29;20051;-66
2023/05/19 06:38:23;;;;;;;9.38;3.35;;;15.90;66.90;;;;;;4821304;29;20043;-65
2023/05/19 06:40:48;;;;;;;14.48;3.40;;;15.90;66.80;;;;;;4809971;29;20066;-66
2023/05/19 06:43:14;;;;;;;8.65;2.40;;;15.90;66.80;;;;;;4809833;29;20378;-66
2023/05/19 06:45:40;;;;;;;8.63;2.60;;;15.90;66.80;;;;;;4809880;29;20454;-66
2023/05/19 06:48:05;;;;;;;8.60;2.50;;;15.90;66.70;;;;;;4797734;29;20042;-66
2023/05/19 06:50:31;;;;;;;9.30;2.90;;;15.90;66.70;;;;;;4827521;29;20051;-66
2023/05/19 06:52:57;;;;;;;18.42;3.88;;;15.90;66.80;;;;;;4828193;29;20046;-66
2023/05/19 06:55:23;;;;;;;26.35;4.35;;;15.80;67.20;;;;;;4811756;29;20095;-66
2023/05/19 06:57:48;;;;;;;12.00;3.58;;;15.90;67.30;;;;;;4825817;29;20054;-67
2023/05/19 07:00:15;;;;;;;20.20;4.57;;;15.80;66.90;;;;;;4793485;29;20504;-66
2023/05/19 07:02:41;;;;;;;12.27;3.53;;;15.80;67.10;;;;;;4809381;29;20062;-66
2023/05/19 07:05:08;;;;;;;21.90;4.43;;;15.80;67.20;;;;;;4809387;29;20062;-66
2023/05/19 07:07:33;;;;;;;17.02;3.40;;;15.80;67.10;;;;;;4809494;29;20062;-66
2023/05/19 07:09:59;;;;;;;16.65;3.70;;;15.80;67.30;;;;;;4821337;29;20046;-66
2023/05/19 07:12:25;;;;;;;19.65;3.15;;;15.80;67.30;;;;;;4824434;29;20082;-66
2023/05/19 07:14:52;;;;;;;17.50;3.72;;;15.80;67.10;;;;;;4823789;29;20054;-67
2023/05/19 07:17:17;;;;;;;15.98;3.22;;;15.80;67.00;;;;;;4826658;29;20058;-66
2023/05/19 07:19:43;;;;;;;10.00;2.97;;;15.80;67.00;;;;;;4827266;29;20054;-66
2023/05/19 07:22:09;;;;;;;11.23;2.58;;;15.80;66.90;;;;;;4827298;29;20053;-67
2023/05/19 07:24:35;;;;;;;12.68;3.13;;;15.80;66.90;;;;;;4827080;29;20054;-66
2023/05/19 07:27:00;;;;;;;10.70;2.78;;;15.80;67.00;;;;;;4825408;29;20466;-66
2023/05/19 07:29:26;;;;;;;7.60;2.67;;;15.80;67.10;;;;;;4826565;29;20054;-66
2023/05/19 07:31:56;;;;;;;7.70;2.85;;;15.80;67.10;;;;;;4826844;29;20466;-66
2023/05/19 07:34:22;;;;;;;11.63;2.70;;;15.80;67.00;;;;;;4810817;29;20093;-66
2023/05/19 07:36:48;;;;;;;14.07;2.85;;;15.80;67.00;;;;;;4813888;29;20486;-66
2023/05/19 07:39:14;;;;;;;6.40;2.08;;;15.80;67.10;;;;;;4792604;29;20066;-66
2023/05/19 07:41:40;;;;;;;7.95;2.67;;;15.80;67.10;;;;;;4808758;29;20061;-66
2023/05/19 07:44:06;;;;;;;6.88;1.98;;;15.80;67.00;;;;;;4808692;29;20127;-66
2023/05/19 07:46:36;;;;;;;8.18;2.13;;;15.80;67.00;;;;;;4818559;29;20419;-66
2023/05/19 07:49:02;;;;;;;6.45;1.83;;;15.90;67.00;;;;;;4827064;29;20419;-66
2023/05/19 07:51:28;;;;;;;7.15;1.88;;;15.90;66.90;;;;;;4827398;29;20350;-66
2023/05/19 07:53:54;;;;;;;6.32;2.00;;;15.90;66.90;;;;;;4826702;29;20050;-68
2023/05/19 07:56:20;;;;;;;7.78;1.90;;;15.90;67.00;;;;;;4818508;29;20062;-66
2023/05/19 07:58:46;;;;;;;7.32;2.20;;;15.90;66.80;;;;;;4808285;29;20126;-66
2023/05/19 08:01:12;;;;;;;8.65;2.42;;;15.90;66.70;;;;;;4808391;29;20058;-66
2023/05/19 08:03:37;;;;;;;5.85;1.85;;;16.00;66.70;;;;;;4808506;29;20046;-66
2023/05/19 08:06:03;;;;;;;6.93;1.98;;;16.00;66.60;;;;;;4814184;29;20042;-66
2023/05/19 08:08:29;;;;;;;6.53;2.38;;;16.00;66.50;;;;;;4826454;29;20347;-66
2023/05/19 08:10:55;;;;;;;5.75;1.90;;;16.00;66.40;;;;;;4826563;29;20054;-66
2023/05/19 08:13:21;;;;;;;7.20;2.15;;;16.00;66.30;;;;;;4826322;29;20057;-66
2023/05/19 08:15:46;;;;;;;6.10;1.80;;;16.00;66.30;;;;;;4816001;29;20059;-66
2023/05/19 08:18:12;;;;;;;3.55;1.67;;;16.00;66.30;;;;;;4808173;29;20123;-66
2023/05/19 08:20:38;;;;;;;3.85;1.63;;;16.00;66.10;;;;;;4808235;29;20051;-66
2023/05/19 08:23:04;;;;;;;4.50;1.80;;;16.00;66.10;;;;;;4808667;29;20124;-67
2023/05/19 08:25:30;;;;;;;4.15;1.42;;;16.00;66.30;;;;;;4808170;29;20086;-67
2023/05/19 08:27:55;;;;;;;4.53;1.52;;;16.10;66.20;;;;;;4807304;29;20055;-66
2023/05/19 08:30:22;;;;;;;4.50;1.60;;;16.00;66.10;;;;;;4808203;29;20066;-67
2023/05/19 08:32:47;;;;;;;7.70;1.58;;;16.00;66.20;;;;;;4808986;29;20047;-70
2023/05/19 08:35:13;;;;;;;6.75;1.77;;;16.10;66.30;;;;;;4825633;29;20186;-70
2023/05/19 08:37:39;;;;;;;10.02;2.00;;;16.10;66.30;;;;;;4826446;29;20446;-73
2023/05/19 08:40:07;;;;;;;6.75;1.80;;;16.10;66.20;;;;;;4825716;29;20058;-72
2023/05/19 08:42:33;;;;;;;5.75;1.92;;;16.10;66.10;;;;;;4808010;29;20051;-72
2023/05/19 08:45:00;;;;;;;5.32;2.05;;;16.10;66.10;;;;;;4809831;29;20464;-73
2023/05/19 08:47:27;;;;;;;5.38;1.73;;;16.10;66.10;;;;;;4820470;29;20062;-71
2023/05/19 08:50:02;;;;;;;8.32;1.88;;;16.10;66.10;;;;;;4816257;29;20055;-72
2023/05/19 08:52:44;;;;;;;10.93;2.20;;;16.20;66.20;;;;;;4819767;29;20093;-66
2023/05/19 08:55:54;;;;;;;13.43;2.33;;;16.20;66.20;;;;;;4823990;29;20474;-65
2023/05/19 08:58:21;;;;;;;11.88;2.78;;;16.20;65.90;;;;;;4810134;29;20069;-65
2023/05/19 09:00:47;;;;;;;9.63;2.20;;;16.20;65.60;;;;;;4823142;29;20374;-67
2023/05/19 09:03:16;;;;;;;12.52;2.85;;;16.20;65.50;;;;;;4823107;29;20054;-67
2023/05/19 09:05:42;;;;;;;21.70;3.58;;;16.30;65.50;;;;;;4822916;29;20046;-66
2023/05/19 09:08:07;;;;;;;25.70;3.80;;;16.30;66.10;;;;;;4814286;29;20058;-66
2023/05/19 09:10:33;;;;;;;22.77;3.60;;;16.30;66.30;;;;;;4825822;29;20198;-67
2023/05/19 09:12:59;;;;;;;12.23;2.90;;;16.30;66.20;;;;;;4818842;29;20130;-67
2023/05/19 09:15:29;;;;;;;15.43;2.50;;;16.30;65.90;;;;;;4816559;29;20063;-66
2023/05/19 09:18:13;;;;;;;19.02;3.38;;;16.30;65.60;;;;;;4807912;29;20051;-64
2023/05/19 09:20:41;;;;;;;12.93;3.00;;;16.30;65.60;;;;;;4822266;29;20055;-64
2023/05/19 09:23:12;;;;;;;17.35;3.45;;;16.40;65.40;;;;;;4807765;29;20047;-64
2023/05/19 09:25:51;;;;;;;15.40;3.10;;;16.40;65.30;;;;;;4808797;29;20051;-63
2023/05/19 09:28:29;;;;;;;18.75;3.67;;;16.40;65.20;;;;;;4824805;29;20142;-63
2023/05/19 09:31:08;;;;;;;18.52;3.22;;;16.40;65.30;;;;;;4826101;29;20063;-64
2023/05/19 09:33:42;;;;;;;17.40;3.42;;;16.40;65.10;;;;;;4825215;29;20525;-64
2023/05/19 09:36:09;;;;;;;12.48;3.10;;;16.50;65.10;;;;;;4807780;29;20055;-64
2023/05/19 09:38:36;;;;;;;14.50;3.17;;;16.50;65.00;;;;;;4815910;29;20054;-64
2023/05/19 09:41:04;;;;;;;13.05;3.03;;;16.50;65.00;;;;;;4828275;29;20121;-64
2023/05/19 09:43:32;;;;;;;12.70;2.88;;;16.50;65.00;;;;;;4812613;29;20073;-64
2023/05/19 09:46:05;;;;;;;11.38;3.38;;;16.50;65.00;;;;;;4828823;29;20046;-64
2023/05/19 09:48:33;;;;;;;15.13;2.97;;;16.50;65.00;;;;;;4822159;29;20061;-65
2023/05/19 09:51:00;;;;;;;15.15;3.47;;;16.50;64.90;;;;;;4810433;29;20116;-64
2023/05/19 09:53:29;;;;;;;12.65;2.83;;;16.50;65.00;;;;;;4810835;29;20352;-64
2023/05/19 09:55:58;;;;;;;12.63;3.53;;;16.50;65.10;;;;;;4810286;29;20459;-64
2023/05/19 09:58:25;;;;;;;10.60;3.35;;;16.50;64.90;;;;;;4815309;29;20058;-64
2023/05/19 10:00:53;;;;;;;9.35;2.75;;;16.50;64.60;;;;;;4828576;29;20058;-64
2023/05/19 10:03:21;;;;;;;11.75;3.35;;;16.50;64.60;;;;;;4828526;29;20042;-64
2023/05/19 10:05:48;;;;;;;10.02;3.15;;;16.50;64.60;;;;;;4828168;29;20047;-64
2023/05/19 10:08:16;;;;;;;9.50;3.13;;;16.50;64.50;;;;;;4819791;29;20062;-65
2023/05/19 10:10:45;;;;;;;10.35;3.40;;;16.50;64.30;;;;;;4816846;29;20044;-64
2023/05/19 10:13:12;;;;;;;9.77;2.83;;;16.50;64.30;;;;;;4815381;29;20133;-66
2023/05/19 10:15:41;;;;;;;8.20;2.92;;;16.60;64.30;;;;;;4817235;29;20104;-65
2023/05/19 10:18:08;;;;;;;9.05;2.42;;;16.60;64.40;;;;;;4802786;29;20055;-64
2023/05/19 10:20:35;;;;;;;8.70;2.67;;;16.60;64.30;;;;;;4824198;29;20066;-64
2023/05/19 10:23:01;;;;;;;11.65;2.70;;;16.60;64.20;;;;;;4828090;29;20046;-64
2023/05/19 10:25:31;;;;;;;8.43;2.38;;;16.60;64.20;;;;;;4827760;29;20108;-64
2023/05/19 10:28:15;;;;;;;5.47;2.05;;;16.60;64.20;;;;;;4828361;29;20354;-64
2023/05/19 10:30:45;;;;;;;7.82;2.47;;;16.60;64.20;;;;;;4810100;29;20062;-64
2023/05/19 10:33:14;;;;;;;5.55;2.03;;;16.60;64.40;;;;;;4816546;29;20111;-64
2023/05/19 10:36:07;;;;;;;4.93;1.75;;;16.60;64.40;;;;;;4816542;29;20431;-64
2023/05/19 10:38:54;;;;;;;5.90;2.22;;;16.60;64.30;;;;;;4809965;29;20051;-64
2023/05/19 10:41:32;;;;;;;6.70;2.53;;;16.60;64.30;;;;;;4809534;29;20065;-64
2023/05/19 10:44:55;;;;;;;6.53;2.10;;;16.60;64.30;;;;;;4809644;29;20074;-64
2023/05/19 10:47:24;;;;;;;5.63;2.33;;;16.60;64.10;;;;;;4778994;29;20062;-64
2023/05/19 10:49:54;;;;;;;7.32;2.00;;;16.60;64.10;;;;;;4808964;29;20050;-64
2023/05/19 10:52:28;;;;;;;6.75;2.47;;;16.60;64.10;;;;;;4809263;29;20055;-64
2023/05/19 10:54:55;;;;;;;7.30;2.00;;;16.60;64.00;;;;;;4809532;29;20059;-64
2023/05/19 10:57:27;;;;;;;5.78;1.85;;;16.60;64.00;;;;;;4778579;29;20360;-64
2023/05/19 10:59:55;;;;;;;6.80;2.20;;;16.60;64.00;;;;;;4809854;29;20081;-64
2023/05/19 11:02:40;;;;;;;4.47;2.28;;;16.60;63.80;;;;;;4809169;29;20043;-64
2023/05/19 11:05:18;;;;;;;3.63;1.70;;;16.60;64.50;;;;;;4814952;29;20046;-65
2023/05/19 11:08:00;;;;;;;4.72;1.63;;;16.60;63.80;;;;;;4818736;29;20046;-65
2023/05/19 11:10:27;;;;;;;4.78;1.65;;;16.60;63.90;;;;;;4815619;29;20047;-64
2023/05/19 11:12:56;;;;;;;4.32;1.80;;;16.60;63.90;;;;;;4817500;29;20123;-64
2023/05/19 11:15:26;;;;;;;5.20;1.85;;;16.60;63.90;;;;;;4818626;29;20043;-64
2023/05/19 11:17:52;;;;;;;6.22;2.10;;;16.60;63.80;;;;;;4817864;29;20129;-65
2023/05/19 11:20:25;;;;;;;3.50;1.90;;;16.60;63.80;;;;;;4817008;29;20066;-65
2023/05/19 11:23:08;;;;;;;3.63;1.77;;;16.60;63.90;;;;;;4817159;29;20047;-64
2023/05/19 11:26:00;;;;;;;3.83;1.50;;;16.60;63.90;;;;;;4817037;29;20062;-64
2023/05/19 11:28:28;;;;;;;4.82;1.88;;;16.60;64.00;;;;;;4814881;29;20158;-64
2023/05/19 11:30:56;;;;;;;3.95;1.65;;;16.60;64.20;;;;;;4815931;29;20106;-64
2023/05/19 11:33:25;;;;;;;5.28;2.03;;;16.60;64.10;;;;;;4808744;29;20123;-64
2023/05/19 11:35:58;;;;;;;4.38;1.48;;;16.60;64.10;;;;;;4808799;29;20065;-64
2023/05/19 11:38:28;;;;;;;4.63;1.85;;;16.50;64.00;;;;;;4809213;29;20380;-65
2023/05/19 11:40:55;;;;;;;4.95;1.73;;;16.50;63.90;;;;;;4808734;29;20058;-65
2023/05/19 11:43:24;;;;;;;4.35;1.50;;;16.60;64.10;;;;;;4808957;29;20129;-64
2023/05/19 11:45:53;;;;;;;3.47;1.65;;;16.50;63.80;;;;;;4814697;29;20131;-66
2023/05/19 11:48:21;;;;;;;4.68;1.80;;;16.50;63.60;;;;;;4815791;29;20043;-66
2023/05/19 11:50:48;;;;;;;4.82;1.58;;;16.50;63.60;;;;;;4817579;29;20061;-65
2023/05/19 11:53:15;;;;;;;5.38;1.83;;;16.50;63.60;;;;;;4817377;29;20473;-65
2023/05/19 11:55:45;;;;;;;5.15;1.58;;;16.50;63.60;;;;;;4816253;29;20047;-65
2023/05/19 11:58:11;;;;;;;4.60;1.75;;;16.50;63.70;;;;;;4817830;29;20062;-66
2023/05/19 12:00:40;;;;;;;5.05;1.90;;;16.50;63.80;;;;;;4815588;29;20062;-65
2023/05/19 12:03:07;;;;;;;3.85;1.88;;;16.50;63.70;;;;;;4817445;29;20046;-65
2023/05/19 12:05:36;;;;;;;3.78;1.60;;;16.50;63.80;;;;;;4817035;29;20057;-66
2023/05/19 12:08:03;;;;;;;2.08;1.27;;;16.50;63.90;;;;;;4815556;29;20097;-66
2023/05/19 12:10:30;;;;;;;2.97;1.27;;;16.50;63.90;;;;;;4816520;29;20432;-66
2023/05/19 12:12:57;;;;;;;4.38;1.38;;;16.50;64.00;;;;;;4825308;29;20065;-66
2023/05/19 12:15:24;;;;;;;3.60;1.60;;;16.50;63.80;;;;;;4810614;29;20047;-65
2023/05/19 12:17:59;;;;;;;3.58;1.85;;;16.50;63.80;;;;;;4808606;29;20061;-65
2023/05/19 12:20:27;;;;;;;2.13;1.30;;;16.50;63.80;;;;;;4814564;29;20050;-65
2023/05/19 12:22:56;;;;;;;4.25;1.80;;;16.50;63.60;;;;;;4814355;29;20050;-65
2023/05/19 12:25:22;;;;;;;3.35;1.50;;;16.50;63.70;;;;;;4815376;29;20478;-65
2023/05/19 12:27:48;;;;;;;3.58;1.60;;;16.50;63.60;;;;;;4816042;29;20058;-65
2023/05/19 12:30:15;;;;;;;3.65;1.52;;;16.50;63.70;;;;;;4815570;29;20047;-65
2023/05/19 12:32:42;;;;;;;6.72;2.20;;;16.50;63.70;;;;;;4815623;29;20089;-65
2023/05/19 12:35:08;;;;;;;4.05;1.48;;;16.50;63.60;;;;;;4816848;29;20043;-65
2023/05/19 12:37:39;;;;;;;3.70;1.55;;;16.50;63.50;;;;;;4817191;29;20047;-65
2023/05/19 12:40:06;;;;;;;3.45;1.40;;;16.50;63.40;;;;;;4814311;29;20061;-65
2023/05/19 12:42:32;;;;;;;4.97;2.05;;;16.40;63.30;;;;;;4811554;29;20107;-64
2023/05/19 12:44:59;;;;;;;3.17;1.80;;;16.50;63.40;;;;;;4817518;29;20101;-65
2023/05/19 12:47:34;;;;;;;4.85;2.00;;;16.40;63.40;;;;;;4815919;29;20088;-65
2023/05/19 12:50:00;;;;;;;3.38;1.55;;;16.50;63.40;;;;;;4815620;29;20051;-65
2023/05/19 12:52:28;;;;;;;3.80;1.40;;;16.50;63.30;;;;;;4800891;29;20066;-65
2023/05/19 12:55:06;;;;;;;4.30;1.35;;;16.50;63.40;;;;;;4816734;29;20119;-65
2023/05/19 12:57:38;;;;;;;4.10;1.85;;;16.50;63.40;;;;;;4814675;29;20043;-65
2023/05/19 13:00:06;;;;;;;3.03;1.50;;;16.50;63.20;;;;;;4815360;29;20039;-65
2023/05/19 13:03:03;;;;;;;3.35;1.48;;;16.50;63.30;;;;;;4822977;29;20046;-65
2023/05/19 13:05:34;;;;;;;3.80;2.00;;;16.50;63.30;;;;;;4825541;29;22246;-64
2023/05/19 13:08:10;;;;;;;3.13;1.80;;;16.50;63.30;;;;;;4818901;29;20510;-65
2023/05/19 13:10:38;;;;;;;3.30;1.65;;;16.50;63.50;;;;;;4808136;29;20137;-65
2023/05/19 13:13:05;;;;;;;4.10;1.50;;;16.50;63.40;;;;;;4792502;29;20054;-65
2023/05/19 13:15:36;;;;;;;4.53;1.63;;;16.50;63.30;;;;;;4813286;29;20051;-65
2023/05/19 13:18:04;;;;;;;3.25;1.50;;;16.50;63.40;;;;;;4829372;29;20042;-65
2023/05/19 13:20:32;;;;;;;4.43;1.80;;;16.50;63.40;;;;;;4828702;29;20094;-64
2023/05/19 13:22:59;;;;;;;4.15;1.73;;;16.50;63.50;;;;;;4828801;29;20053;-65
2023/05/19 13:25:25;;;;;;;4.10;1.83;;;16.50;63.40;;;;;;4827772;29;20062;-65
2023/05/19 13:27:58;;;;;;;3.28;1.90;;;16.50;63.40;;;;;;4818606;29;20060;-66
2023/05/19 13:30:24;;;;;;;2.90;1.77;;;16.50;63.50;;;;;;4815890;29;20050;-65
2023/05/19 13:32:51;;;;;;;3.60;1.63;;;16.50;63.60;;;;;;4824741;29;20469;-66
2023/05/19 13:35:17;;;;;;;5.35;1.83;;;16.50;63.50;;;;;;4816722;29;20046;-66
2023/05/19 13:37:43;;;;;;;5.35;2.17;;;16.50;63.50;;;;;;4818268;29;20444;-65
2023/05/19 13:40:09;;;;;;;4.85;1.90;;;16.50;63.50;;;;;;4818444;29;20051;-65
2023/05/19 13:42:35;;;;;;;5.35;2.17;;;16.50;63.50;;;;;;4818540;29;20378;-65
2023/05/19 13:45:02;;;;;;;11.38;1.98;;;16.50;63.60;;;;;;4818877;29;20046;-65
2023/05/19 13:47:28;;;;;;;5.18;1.70;;;16.50;64.70;;;;;;4818604;29;20399;-65
2023/05/19 13:49:54;;;;;;;6.28;2.00;;;16.50;64.30;;;;;;4818349;29;20084;-64
2023/05/19 13:52:20;;;;;;;6.18;1.92;;;16.60;64.20;;;;;;4803362;29;20086;-64
2023/05/19 13:54:47;;;;;;;6.45;2.03;;;16.50;64.50;;;;;;4811356;29;20070;-64
2023/05/19 13:57:13;;;;;;;12.32;6.95;;;16.60;64.90;;;;;;4817910;29;20128;-64
2023/05/19 13:59:40;;;;;;;22.02;17.92;;;16.60;65.30;;;;;;4819090;29;20054;-65
2023/05/19 14:02:06;;;;;;;28.15;18.88;;;16.60;66.10;;;;;;4819548;29;20051;-64
2023/05/19 14:04:35;;;;;;;20.00;11.40;;;16.60;66.80;;;;;;4817936;29;20043;-65
2023/05/19 14:07:01;;;;;;;26.40;15.63;;;16.70;67.00;;;;;;4820790;29;20459;-64
2023/05/19 14:09:27;;;;;;;31.02;17.30;;;16.70;67.60;;;;;;4819602;29;20051;-65
2023/05/19 14:11:52;;;;;;;20.15;11.10;;;16.70;68.00;;;;;;4817809;29;20057;-64
2023/05/19 14:14:18;;;;;;;11.30;6.63;;;16.70;67.60;;;;;;4803025;29;20046;-64
2023/05/19 14:16:44;;;;;;;12.63;5.00;;;16.80;67.10;;;;;;4819106;29;20358;-64
2023/05/19 14:19:10;;;;;;;14.60;5.93;;;16.80;65.90;;;;;;4817558;29;20046;-63
2023/05/19 14:21:36;;;;;;;12.35;5.75;;;16.80;65.20;;;;;;4819282;29;20039;-65
2023/05/19 14:24:02;;;;;;;12.95;6.10;;;16.80;65.50;;;;;;4818156;29;20043;-65
2023/05/19 14:26:28;;;;;;;11.57;6.85;;;16.80;65.50;;;;;;4816930;29;20065;-66
2023/05/19 14:28:55;;;;;;;9.02;3.83;;;16.80;65.90;;;;;;4810161;29;20054;-64
2023/05/19 14:31:21;;;;;;;9.80;3.92;;;16.80;65.00;;;;;;4810306;29;20400;-66
2023/05/19 14:33:47;;;;;;;9.10;3.75;;;16.80;64.60;;;;;;4810185;29;20058;-64
2023/05/19 14:36:13;;;;;;;7.95;3.13;;;16.90;64.20;;;;;;4809893;29;20111;-64
2023/05/19 14:38:39;;;;;;;7.45;3.15;;;16.90;63.80;;;;;;4809944;29;20054;-65
2023/05/19 14:41:05;;;;;;;7.80;3.00;;;16.90;63.70;;;;;;4794038;29;20134;-64
2023/05/19 14:43:31;;;;;;;7.47;3.85;;;16.90;63.50;;;;;;4809832;29;20423;-64
2023/05/19 14:45:57;;;;;;;7.28;2.83;;;16.90;63.40;;;;;;4811736;29;20061;-64
2023/05/19 14:48:22;;;;;;;5.45;2.72;;;16.90;63.20;;;;;;4812345;29;20203;-64
2023/05/19 14:50:48;;;;;;;7.72;3.35;;;16.90;62.90;;;;;;4812246;29;20054;-64
2023/05/19 14:53:15;;;;;;;12.30;3.15;;;16.90;63.00;;;;;;4828000;29;20129;-64
2023/05/19 14:55:40;;;;;;;12.75;2.95;;;16.90;62.90;;;;;;4815169;29;20399;-65
2023/05/19 14:58:06;;;;;;;8.38;2.58;;;16.90;62.80;;;;;;4809372;29;20047;-65
2023/05/19 15:00:32;;;;;;;6.15;3.03;;;16.90;62.80;;;;;;4809753;29;20054;-64
2023/05/19 15:02:58;;;;;;;12.95;3.95;;;16.90;62.80;;;;;;4809434;29;20492;-65
2023/05/19 15:05:24;;;;;;;16.85;3.70;;;16.90;62.90;;;;;;4818440;29;20383;-68
2023/05/19 15:07:50;;;;;;;17.00;3.50;;;16.90;63.30;;;;;;4827570;29;20459;-66
2023/05/19 15:10:19;;;;;;;16.83;3.38;;;16.90;63.80;;;;;;4824067;29;20064;-66
2023/05/19 15:12:45;;;;;;;15.95;3.45;;;16.90;64.40;;;;;;4824915;29;20050;-66
2023/05/19 15:15:11;;;;;;;19.00;4.45;;;16.90;64.70;;;;;;4826812;29;20130;-66
2023/05/19 15:17:37;;;;;;;23.92;4.28;;;16.90;65.10;;;;;;4827338;29;20429;-65
2023/05/19 15:20:03;;;;;;;18.58;3.63;;;16.90;65.40;;;;;;4827435;29;20060;-65
2023/05/19 15:22:29;;;;;;;22.65;4.10;;;17.00;65.90;;;;;;4827023;29;20523;-66
2023/05/19 15:24:55;;;;;;;23.80;4.40;;;17.00;66.00;;;;;;4821780;29;20055;-65
2023/05/19 15:27:21;;;;;;;19.92;3.85;;;17.00;66.50;;;;;;4808366;29;20148;-65
2023/05/19 15:29:47;;;;;;;18.92;4.43;;;17.00;66.80;;;;;;4808984;29;20039;-65
2023/05/19 15:32:13;;;;;;;25.70;4.85;;;17.00;67.00;;;;;;4808721;29;20332;-65
2023/05/19 15:34:38;;;;;;;18.20;3.70;;;17.10;67.40;;;;;;4811665;29;20057;-65
2023/05/19 15:37:04;;;;;;;21.48;4.43;;;17.10;67.40;;;;;;4826099;29;20369;-66
2023/05/19 15:39:30;;;;;;;14.43;3.70;;;17.10;67.00;;;;;;4826223;29;20454;-66
2023/05/19 15:41:56;;;;;;;13.00;3.88;;;17.10;66.50;;;;;;4821589;29;20469;-65
2023/05/19 15:44:21;;;;;;;13.32;3.45;;;17.10;65.90;;;;;;4826595;29;20478;-65
2023/05/19 15:46:47;;;;;;;14.07;3.53;;;17.10;65.50;;;;;;4826781;29;20082;-65
2023/05/19 15:49:13;;;;;;;13.05;3.70;;;17.10;65.30;;;;;;4826879;29;20051;-65
2023/05/19 15:51:38;;;;;;;11.20;4.22;;;17.10;65.10;;;;;;4826867;29;20138;-65
2023/05/19 15:54:04;;;;;;;10.98;3.60;;;17.10;65.00;;;;;;4826820;29;20474;-64
2023/05/19 15:56:30;;;;;;;9.65;3.38;;;17.10;64.80;;;;;;4826095;29;20058;-65
2023/05/19 15:58:56;;;;;;;9.90;3.35;;;17.10;64.60;;;;;;4826506;29;20515;-65
2023/05/19 16:01:21;;;;;;;13.48;3.83;;;17.20;64.50;;;;;;4826895;29;20046;-64
2023/05/19 16:03:47;;;;;;;11.88;3.60;;;17.20;64.30;;;;;;4819210;29;20490;-64
2023/05/19 16:06:13;;;;;;;15.25;3.88;;;17.20;64.10;;;;;;4821556;29;20047;-64
2023/05/19 16:08:39;;;;;;;11.15;3.67;;;17.20;64.10;;;;;;4825923;29;20065;-65
2023/05/19 16:11:04;;;;;;;15.65;3.45;;;17.20;64.20;;;;;;4827044;29;20451;-64
2023/05/19 16:13:32;;;;;;;13.48;4.30;;;17.20;64.10;;;;;;4826650;29;20551;-64
2023/05/19 16:15:58;;;;;;;11.25;3.53;;;17.20;64.00;;;;;;4821181;29;20419;-64
2023/05/19 16:18:23;;;;;;;14.55;3.67;;;17.20;63.80;;;;;;4825952;29;20054;-63
2023/05/19 16:20:50;;;;;;;13.80;3.58;;;17.30;63.90;;;;;;4826371;29;20046;-63
2023/05/19 16:23:15;;;;;;;13.73;3.72;;;17.30;64.10;;;;;;4826236;29;20041;-63
2023/05/19 16:25:41;;;;;;;18.30;3.83;;;17.30;64.10;;;;;;4825771;29;20069;-63
2023/05/19 16:28:07;;;;;;;22.27;4.38;;;17.30;64.30;;;;;;4826622;29;20461;-63
2023/05/19 16:30:33;;;;;;;17.55;4.05;;;17.40;64.60;;;;;;4826281;29;20050;-62
2023/05/19 16:32:59;;;;;;;12.82;3.40;;;17.50;64.30;;;;;;4826613;29;20427;-63
2023/05/19 16:35:26;;;;;;;10.32;3.10;;;17.40;63.80;;;;;;4803644;29;20051;-64
2023/05/19 16:37:52;;;;;;;23.45;4.53;;;17.50;63.70;;;;;;4807518;29;20077;-63
2023/05/19 16:40:18;;;;;;;21.00;4.28;;;17.50;64.20;;;;;;4808169;29;20066;-63
2023/05/19 16:42:44;;;;;;;18.13;3.78;;;17.50;64.50;;;;;;4807898;29;20051;-62
2023/05/19 16:45:10;;;;;;;24.42;4.82;;;17.50;64.90;;;;;;4811129;29;20061;-63
2023/05/19 16:47:36;;;;;;;17.33;3.38;;;17.60;65.30;;;;;;4826506;29;20450;-63
2023/05/19 16:50:02;;;;;;;32.17;5.15;;;17.60;65.40;;;;;;4829958;29;20061;-63
2023/05/19 16:52:28;;;;;;;24.83;4.20;;;17.70;65.70;;;;;;4829588;29;20354;-63
2023/05/19 16:54:53;;;;;;;27.88;4.45;;;17.70;65.80;;;;;;4815631;29;20047;-62
2023/05/19 16:57:19;;;;;;;18.40;3.53;;;17.70;65.90;;;;;;4795978;29;20538;-62
2023/05/19 16:59:45;;;;;;;18.02;4.03;;;17.70;65.90;;;;;;4811562;29;20059;-61
2023/05/19 17:02:11;;;;;;;14.07;3.67;;;17.70;65.80;;;;;;4811766;29;20371;-62
2023/05/19 17:04:36;;;;;;;22.40;4.10;;;17.70;65.90;;;;;;4822599;29;20382;-62
2023/05/19 17:07:02;;;;;;;19.60;3.40;;;17.70;65.90;;;;;;4813619;29;20054;-62